TGL971C LPMA-LXGB
Flight info
| Callsign | TGL971C |
|---|---|
| Flight time | 1h 33m |
| Altitude | 36000 |
| Route | DEGUN DCT NARTA/N0428F370 DCT ORTOP/N0430F380 T100 SOVIS |
| Aircraft | A320/M-SDE3FGHIRWY/LB1 |
Departure
| Time | 2026-05-04 15:54 |
|---|---|
| Airport | Cristiano Ronaldo International Airport (LPMA) |
Arrival
| Time | 2026-05-04 17:27 |
|---|---|
| Airport | Gibraltar Airport (LXGB) |
| Time | Latitude | Longitude | Altitude | Speed | Heading |
|---|---|---|---|---|---|
| 2026-05-04 15:10 | 32.69283 | -16.77765 | 177 ft | 0 kts | 137° |
| 2026-05-04 15:14 | 32.69284 | -16.77765 | 177 ft | 0 kts | 137° |
| 2026-05-04 15:43 | 32.69287 | -16.77761 | 176 ft | 3 kts | 90° |
| 2026-05-04 15:43 | 32.69288 | -16.77765 | 176 ft | 3 kts | 116° |
| 2026-05-04 15:43 | 32.69300 | -16.77782 | 176 ft | 3 kts | 133° |
| 2026-05-04 15:44 | 32.69313 | -16.77804 | 176 ft | 3 kts | 103° |
| 2026-05-04 15:44 | 32.69313 | -16.77829 | 176 ft | 3 kts | 53° |
| 2026-05-04 15:44 | 32.69306 | -16.77838 | 176 ft | 1 kts | 46° |
| 2026-05-04 15:47 | 32.69312 | -16.77831 | 176 ft | 4 kts | 46° |
| 2026-05-04 15:47 | 32.69350 | -16.77783 | 176 ft | 9 kts | 47° |
| 2026-05-04 15:47 | 32.69393 | -16.77731 | 176 ft | 8 kts | 45° |
| 2026-05-04 15:48 | 32.69429 | -16.77687 | 176 ft | 7 kts | 46° |
| 2026-05-04 15:48 | 32.69459 | -16.77649 | 176 ft | 6 kts | 46° |
| 2026-05-04 15:48 | 32.69505 | -16.77592 | 176 ft | 4 kts | 46° |
| 2026-05-04 15:49 | 32.69521 | -16.77573 | 176 ft | 3 kts | 46° |
| 2026-05-04 15:49 | 32.69549 | -16.77538 | 176 ft | 8 kts | 47° |
| 2026-05-04 15:49 | 32.69595 | -16.77479 | 176 ft | 9 kts | 47° |
| 2026-05-04 15:49 | 32.69637 | -16.77427 | 176 ft | 8 kts | 46° |
| 2026-05-04 15:50 | 32.69674 | -16.77381 | 176 ft | 9 kts | 46° |
| 2026-05-04 15:50 | 32.69728 | -16.77314 | 176 ft | 14 kts | 46° |
| 2026-05-04 15:50 | 32.69801 | -16.77223 | 176 ft | 15 kts | 45° |
| 2026-05-04 15:50 | 32.69886 | -16.77178 | 176 ft | 13 kts | 358° |
| 2026-05-04 15:51 | 32.69972 | -16.77180 | 176 ft | 12 kts | 360° |
| 2026-05-04 15:51 | 32.70041 | -16.77150 | 176 ft | 11 kts | 40° |
| 2026-05-04 15:51 | 32.70110 | -16.77070 | 176 ft | 16 kts | 45° |
| 2026-05-04 15:51 | 32.70203 | -16.76961 | 176 ft | 20 kts | 45° |
| 2026-05-04 15:52 | 32.70304 | -16.76843 | 176 ft | 21 kts | 44° |
| 2026-05-04 15:52 | 32.70406 | -16.76724 | 176 ft | 21 kts | 44° |
| 2026-05-04 15:52 | 32.70514 | -16.76598 | 176 ft | 22 kts | 45° |
| 2026-05-04 15:52 | 32.70635 | -16.76501 | 176 ft | 18 kts | 14° |
| 2026-05-04 15:53 | 32.70674 | -16.76440 | 176 ft | 7 kts | 137° |
| 2026-05-04 15:53 | 32.70636 | -16.76454 | 176 ft | 7 kts | 223° |
| 2026-05-04 15:53 | 32.70486 | -16.76629 | 176 ft | 65 kts | 224° |
| 2026-05-04 15:53 | 32.70004 | -16.77193 | 176 ft | 127 kts | 224° |
| 2026-05-04 15:54 | 32.69264 | -16.78067 | 297 ft | 163 kts | 223° |
| 2026-05-04 15:54 | 32.68456 | -16.78974 | 1021 ft | 158 kts | 209° |
| 2026-05-04 15:54 | 32.67403 | -16.79344 | 1540 ft | 172 kts | 181° |
| 2026-05-04 15:54 | 32.66135 | -16.79293 | 1856 ft | 193 kts | 188° |
| 2026-05-04 15:55 | 32.64827 | -16.79893 | 2178 ft | 212 kts | 207° |
| 2026-05-04 15:55 | 32.63331 | -16.80356 | 2531 ft | 238 kts | 183° |
| 2026-05-04 15:55 | 32.61639 | -16.80040 | 3090 ft | 257 kts | 156° |
| 2026-05-04 15:55 | 32.60219 | -16.78715 | 3888 ft | 266 kts | 128° |
| 2026-05-04 15:56 | 32.59409 | -16.76728 | 4773 ft | 273 kts | 103° |
| 2026-05-04 15:56 | 32.59382 | -16.74469 | 5588 ft | 281 kts | 78° |
| 2026-05-04 15:56 | 32.59928 | -16.72234 | 5898 ft | 282 kts | 73° |
| 2026-05-04 15:56 | 32.60539 | -16.70027 | 5989 ft | 281 kts | 72° |
| 2026-05-04 15:57 | 32.61165 | -16.67822 | 6184 ft | 285 kts | 72° |
| 2026-05-04 15:57 | 32.61800 | -16.65589 | 7098 ft | 287 kts | 72° |
| 2026-05-04 15:57 | 32.62433 | -16.63330 | 7988 ft | 290 kts | 72° |
| 2026-05-04 15:57 | 32.63070 | -16.61039 | 8814 ft | 295 kts | 71° |
| 2026-05-04 15:58 | 32.63715 | -16.58706 | 9628 ft | 300 kts | 71° |
| 2026-05-04 15:58 | 32.64411 | -16.56346 | 10250 ft | 311 kts | 65° |
| 2026-05-04 15:58 | 32.65521 | -16.54048 | 10530 ft | 333 kts | 52° |
| 2026-05-04 15:58 | 32.67132 | -16.52003 | 11046 ft | 344 kts | 41° |
| 2026-05-04 15:59 | 32.68890 | -16.50041 | 11749 ft | 350 kts | 41° |
| 2026-05-04 15:59 | 32.70663 | -16.48029 | 12470 ft | 355 kts | 42° |
| 2026-05-04 15:59 | 32.72431 | -16.46010 | 13158 ft | 360 kts | 42° |
| 2026-05-04 15:59 | 32.74243 | -16.43934 | 13850 ft | 365 kts | 42° |
| 2026-05-04 16:00 | 32.76104 | -16.41797 | 14499 ft | 369 kts | 42° |
| 2026-05-04 16:00 | 32.77937 | -16.39693 | 15166 ft | 373 kts | 42° |
| 2026-05-04 16:00 | 32.79810 | -16.37544 | 15820 ft | 376 kts | 42° |
| 2026-05-04 16:00 | 32.81697 | -16.35375 | 16459 ft | 379 kts | 42° |
| 2026-05-04 16:01 | 32.83602 | -16.33185 | 17131 ft | 382 kts | 42° |
| 2026-05-04 16:01 | 32.85524 | -16.30984 | 17778 ft | 385 kts | 42° |
| 2026-05-04 16:01 | 32.87462 | -16.28769 | 18404 ft | 388 kts | 42° |
| 2026-05-04 16:01 | 32.89415 | -16.26535 | 18962 ft | 391 kts | 42° |
| 2026-05-04 16:02 | 32.91386 | -16.24278 | 19484 ft | 395 kts | 42° |
| 2026-05-04 16:02 | 32.93373 | -16.22001 | 19981 ft | 399 kts | 42° |
| 2026-05-04 16:02 | 32.97402 | -16.17374 | 20938 ft | 406 kts | 42° |
| 2026-05-04 16:03 | 32.99442 | -16.15022 | 21428 ft | 410 kts | 42° |
| 2026-05-04 16:03 | 33.01496 | -16.12650 | 21891 ft | 413 kts | 42° |
| 2026-05-04 16:03 | 33.03570 | -16.10256 | 22352 ft | 417 kts | 42° |
| 2026-05-04 16:03 | 33.05662 | -16.07841 | 22814 ft | 421 kts | 42° |
| 2026-05-04 16:04 | 33.07776 | -16.05406 | 23318 ft | 424 kts | 41° |
| 2026-05-04 16:04 | 33.12059 | -16.00472 | 24110 ft | 431 kts | 41° |
| 2026-05-04 16:04 | 33.14220 | -15.97976 | 24482 ft | 434 kts | 42° |
| 2026-05-04 16:05 | 33.16396 | -15.95455 | 24829 ft | 438 kts | 42° |
| 2026-05-04 16:05 | 33.18587 | -15.92912 | 25212 ft | 440 kts | 41° |
| 2026-05-04 16:05 | 33.23012 | -15.87780 | 25940 ft | 446 kts | 41° |
| 2026-05-04 16:06 | 33.25246 | -15.85189 | 26313 ft | 448 kts | 41° |
| 2026-05-04 16:06 | 33.31238 | -15.78227 | 27286 ft | 454 kts | 41° |
| 2026-05-04 16:07 | 33.34244 | -15.74734 | 27761 ft | 457 kts | 41° |
| 2026-05-04 16:07 | 33.41116 | -15.66714 | 28809 ft | 463 kts | 42° |
| 2026-05-04 16:08 | 33.43431 | -15.64021 | 29166 ft | 465 kts | 41° |
| 2026-05-04 16:08 | 33.50564 | -15.56018 | 30142 ft | 473 kts | 40° |
| 2026-05-04 16:09 | 33.55406 | -15.50623 | 30652 ft | 477 kts | 41° |
| 2026-05-04 16:09 | 33.60257 | -15.45155 | 31183 ft | 480 kts | 41° |
| 2026-05-04 16:10 | 33.65125 | -15.39637 | 31787 ft | 481 kts | 41° |
| 2026-05-04 16:11 | 33.72387 | -15.31400 | 32927 ft | 477 kts | 41° |
| 2026-05-04 16:11 | 33.74796 | -15.28670 | 33299 ft | 475 kts | 41° |
| 2026-05-04 16:12 | 33.81992 | -15.20494 | 34240 ft | 476 kts | 40° |
| 2026-05-04 16:12 | 33.89222 | -15.12264 | 34995 ft | 477 kts | 40° |
| 2026-05-04 16:13 | 33.94017 | -15.06803 | 35468 ft | 478 kts | 41° |
| 2026-05-04 16:13 | 33.98845 | -15.01291 | 35917 ft | 478 kts | 41° |
| 2026-05-04 16:14 | 34.03672 | -14.95756 | 36351 ft | 479 kts | 41° |
| 2026-05-04 16:14 | 34.07681 | -14.91144 | 36691 ft | 480 kts | 41° |
| 2026-05-04 16:15 | 34.14968 | -14.82764 | 37185 ft | 483 kts | 41° |
| 2026-05-04 16:16 | 34.19841 | -14.77172 | 37601 ft | 483 kts | 41° |
| 2026-05-04 16:16 | 34.27124 | -14.68770 | 38139 ft | 483 kts | 41° |
| 2026-05-04 16:17 | 34.31974 | -14.63163 | 38152 ft | 482 kts | 41° |
| 2026-05-04 16:18 | 34.41673 | -14.51919 | 38155 ft | 486 kts | 41° |
| 2026-05-04 16:19 | 34.53878 | -14.37710 | 38155 ft | 487 kts | 41° |
| 2026-05-04 16:20 | 34.66080 | -14.23458 | 38160 ft | 487 kts | 41° |
| 2026-05-04 16:22 | 34.78288 | -14.09127 | 38152 ft | 489 kts | 41° |
| 2026-05-04 16:23 | 34.92969 | -13.91806 | 38163 ft | 490 kts | 41° |
| 2026-05-04 16:25 | 35.07654 | -13.74418 | 38179 ft | 490 kts | 40° |
| 2026-05-04 16:26 | 35.24709 | -13.54068 | 38177 ft | 490 kts | 40° |
| 2026-05-04 16:28 | 35.36892 | -13.39462 | 38174 ft | 490 kts | 40° |
| 2026-05-04 16:29 | 35.53943 | -13.18928 | 38181 ft | 491 kts | 40° |
| 2026-05-04 16:31 | 35.66057 | -13.04245 | 38181 ft | 491 kts | 40° |
| 2026-05-04 16:32 | 35.80615 | -12.86517 | 38165 ft | 490 kts | 40° |
| 2026-05-04 16:33 | 35.90290 | -12.74671 | 38180 ft | 490 kts | 40° |
| 2026-05-04 16:34 | 35.97536 | -12.65786 | 38166 ft | 489 kts | 40° |
| 2026-05-04 16:35 | 36.03831 | -12.55848 | 38169 ft | 499 kts | 64° |
| 2026-05-04 16:35 | 36.05828 | -12.43329 | 38156 ft | 499 kts | 90° |
| 2026-05-04 16:36 | 36.06014 | -12.30449 | 38144 ft | 501 kts | 90° |
| 2026-05-04 16:37 | 36.06191 | -12.17532 | 38142 ft | 502 kts | 90° |
| 2026-05-04 16:38 | 36.06390 | -12.00278 | 38148 ft | 502 kts | 90° |
| 2026-05-04 16:39 | 36.06611 | -11.78721 | 38149 ft | 504 kts | 90° |
| 2026-05-04 16:40 | 36.06752 | -11.61407 | 38152 ft | 504 kts | 91° |
| 2026-05-04 16:41 | 36.06914 | -11.39766 | 38153 ft | 504 kts | 91° |
| 2026-05-04 16:43 | 36.07024 | -11.18109 | 38143 ft | 504 kts | 91° |
| 2026-05-04 16:43 | 36.07070 | -11.05101 | 38143 ft | 505 kts | 91° |
| 2026-05-04 16:45 | 36.07133 | -10.79052 | 38140 ft | 506 kts | 91° |
| 2026-05-04 16:46 | 36.07128 | -10.57314 | 38148 ft | 506 kts | 91° |
| 2026-05-04 16:47 | 36.07101 | -10.39906 | 38137 ft | 507 kts | 91° |
| 2026-05-04 16:48 | 36.07065 | -10.22480 | 38129 ft | 507 kts | 91° |
| 2026-05-04 16:49 | 36.06982 | -10.05028 | 38100 ft | 508 kts | 92° |
| 2026-05-04 16:50 | 36.06876 | -9.87588 | 38115 ft | 510 kts | 92° |
| 2026-05-04 16:51 | 36.06784 | -9.74435 | 38115 ft | 510 kts | 92° |
| 2026-05-04 16:52 | 36.06632 | -9.56875 | 38115 ft | 511 kts | 92° |
| 2026-05-04 16:53 | 36.06511 | -9.43694 | 38117 ft | 512 kts | 92° |
| 2026-05-04 16:54 | 36.06317 | -9.26091 | 38107 ft | 512 kts | 92° |
| 2026-05-04 16:55 | 36.05970 | -8.99664 | 38107 ft | 513 kts | 92° |
| 2026-05-04 16:56 | 36.05664 | -8.77667 | 38102 ft | 514 kts | 92° |
| 2026-05-04 16:57 | 36.05442 | -8.64427 | 38105 ft | 514 kts | 92° |
| 2026-05-04 16:58 | 36.05128 | -8.46760 | 38100 ft | 514 kts | 92° |
| 2026-05-04 17:00 | 36.04621 | -8.20252 | 38102 ft | 515 kts | 93° |
| 2026-05-04 17:01 | 36.04151 | -7.98147 | 38097 ft | 515 kts | 93° |
| 2026-05-04 17:02 | 36.03738 | -7.80470 | 38090 ft | 515 kts | 93° |
| 2026-05-04 17:02 | 36.03530 | -7.71639 | 37178 ft | 513 kts | 93° |
| 2026-05-04 17:03 | 36.03423 | -7.67240 | 36560 ft | 512 kts | 93° |
| 2026-05-04 17:03 | 36.03314 | -7.62852 | 36064 ft | 508 kts | 92° |
| 2026-05-04 17:03 | 36.03092 | -7.54270 | 35211 ft | 498 kts | 92° |
| 2026-05-04 17:04 | 36.02863 | -7.45796 | 34382 ft | 489 kts | 92° |
| 2026-05-04 17:04 | 36.02511 | -7.37498 | 33486 ft | 479 kts | 99° |
| 2026-05-04 17:05 | 36.01541 | -7.30750 | 32506 ft | 476 kts | 103° |
| 2026-05-04 17:05 | 36.00331 | -7.22746 | 31467 ft | 472 kts | 103° |
| 2026-05-04 17:06 | 35.99124 | -7.14826 | 30539 ft | 467 kts | 103° |
| 2026-05-04 17:06 | 35.98525 | -7.10899 | 30076 ft | 464 kts | 103° |
| 2026-05-04 17:07 | 35.97340 | -7.03124 | 29074 ft | 457 kts | 103° |
| 2026-05-04 17:07 | 35.96951 | -7.00580 | 28768 ft | 454 kts | 103° |
| 2026-05-04 17:07 | 35.96170 | -6.95487 | 28166 ft | 449 kts | 103° |
| 2026-05-04 17:07 | 35.95591 | -6.91722 | 27725 ft | 445 kts | 103° |
| 2026-05-04 17:08 | 35.95016 | -6.87992 | 27285 ft | 441 kts | 103° |
| 2026-05-04 17:08 | 35.93875 | -6.80631 | 26436 ft | 433 kts | 103° |
| 2026-05-04 17:08 | 35.93309 | -6.77003 | 26022 ft | 429 kts | 103° |
| 2026-05-04 17:09 | 35.92750 | -6.73401 | 25622 ft | 425 kts | 103° |
| 2026-05-04 17:09 | 35.92316 | -6.69806 | 25223 ft | 423 kts | 94° |
| 2026-05-04 17:09 | 35.92314 | -6.66242 | 24825 ft | 420 kts | 88° |
| 2026-05-04 17:10 | 35.92495 | -6.59107 | 24051 ft | 413 kts | 88° |
| 2026-05-04 17:10 | 35.92716 | -6.48627 | 22818 ft | 402 kts | 89° |
| 2026-05-04 17:11 | 35.92788 | -6.45194 | 22400 ft | 399 kts | 89° |
| 2026-05-04 17:11 | 35.92860 | -6.41787 | 21987 ft | 396 kts | 89° |
| 2026-05-04 17:11 | 35.93003 | -6.35056 | 21208 ft | 389 kts | 89° |
| 2026-05-04 17:12 | 35.93073 | -6.31736 | 20830 ft | 386 kts | 89° |
| 2026-05-04 17:12 | 35.93205 | -6.25170 | 20083 ft | 380 kts | 89° |
| 2026-05-04 17:13 | 35.93390 | -6.15510 | 18998 ft | 372 kts | 89° |
| 2026-05-04 17:14 | 35.93566 | -6.05974 | 17743 ft | 369 kts | 89° |
| 2026-05-04 17:14 | 35.93622 | -6.02818 | 17345 ft | 367 kts | 89° |
| 2026-05-04 17:14 | 35.93730 | -5.96562 | 16557 ft | 363 kts | 88° |
| 2026-05-04 17:15 | 35.94020 | -5.93473 | 16171 ft | 362 kts | 81° |
| 2026-05-04 17:15 | 35.94804 | -5.87358 | 15402 ft | 360 kts | 81° |
| 2026-05-04 17:16 | 35.95561 | -5.81268 | 14640 ft | 358 kts | 81° |
| 2026-05-04 17:16 | 35.96574 | -5.72160 | 13457 ft | 356 kts | 83° |
| 2026-05-04 17:17 | 35.96839 | -5.69136 | 13061 ft | 354 kts | 84° |
| 2026-05-04 17:17 | 35.97602 | -5.60201 | 11886 ft | 348 kts | 84° |
| 2026-05-04 17:18 | 35.97867 | -5.57241 | 11492 ft | 346 kts | 84° |
| 2026-05-04 17:18 | 35.98396 | -5.51358 | 10743 ft | 341 kts | 84° |
| 2026-05-04 17:19 | 35.98901 | -5.45717 | 10463 ft | 321 kts | 84° |
| 2026-05-04 17:19 | 35.99385 | -5.40284 | 9835 ft | 316 kts | 84° |
| 2026-05-04 17:20 | 36.00003 | -5.34953 | 9040 ft | 314 kts | 72° |
| 2026-05-04 17:20 | 36.02404 | -5.30274 | 7314 ft | 337 kts | 47° |
| 2026-05-04 17:20 | 36.03618 | -5.27763 | 6636 ft | 344 kts | 68° |
| 2026-05-04 17:21 | 36.05199 | -5.22225 | 5634 ft | 339 kts | 70° |
| 2026-05-04 17:21 | 36.06699 | -5.16802 | 4910 ft | 324 kts | 70° |
| 2026-05-04 17:22 | 36.07414 | -5.14210 | 4661 ft | 314 kts | 70° |
| 2026-05-04 17:22 | 36.08274 | -5.11795 | 4405 ft | 301 kts | 51° |
| 2026-05-04 17:23 | 36.13385 | -5.10207 | 3652 ft | 249 kts | 328° |
| 2026-05-04 17:23 | 36.14689 | -5.11492 | 3412 ft | 235 kts | 307° |
| 2026-05-04 17:23 | 36.15591 | -5.15052 | 3153 ft | 215 kts | 268° |
| 2026-05-04 17:24 | 36.15524 | -5.16911 | 2895 ft | 217 kts | 269° |
| 2026-05-04 17:24 | 36.15411 | -5.22283 | 1831 ft | 189 kts | 268° |
| 2026-05-04 17:25 | 36.15378 | -5.23834 | 1558 ft | 170 kts | 269° |
| 2026-05-04 17:25 | 36.15328 | -5.26366 | 1523 ft | 133 kts | 269° |
| 2026-05-04 17:26 | 36.15293 | -5.28600 | 1282 ft | 128 kts | 269° |
| 2026-05-04 17:26 | 36.15227 | -5.31844 | 662 ft | 126 kts | 268° |
| 2026-05-04 17:27 | 36.15151 | -5.34000 | 70 ft | 125 kts | 264° |
| 2026-05-04 17:27 | 36.15103 | -5.35477 | 22 ft | 29 kts | 267° |
| 2026-05-04 17:28 | 36.15102 | -5.35896 | 17 ft | 13 kts | 270° |
| 2026-05-04 17:29 | 36.15103 | -5.35534 | 21 ft | 34 kts | 86° |
| 2026-05-04 17:29 | 36.15160 | -5.34864 | 22 ft | 10 kts | 15° |
| 2026-05-04 17:30 | 36.15207 | -5.34858 | 23 ft | 3 kts | 338° |
| 2026-05-04 17:31 | 36.15205 | -5.34866 | 21 ft | 0 kts | 259° |
| 2026-05-04 17:31 | 36.15307 | -5.34585 | 19 ft | 0 kts | 357° |
| 2026-05-04 17:37 | 36.15306 | -5.34585 | 19 ft | 0 kts | 357° |